sensor_id;sensor_type;location;lat;lon;timestamp;P1;durP1;ratioP1;P2;durP2;ratioP2
10987;SDS011;5547;42.672;23.230;2023-04-01T00:00:44;7.40;;;2.60;;
10987;SDS011;5547;42.672;23.230;2023-04-01T00:03:45;7.00;;;2.15;;
10987;SDS011;5547;42.672;23.230;2023-04-01T00:06:46;8.77;;;2.20;;
10987;SDS011;5547;42.672;23.230;2023-04-01T00:09:47;6.47;;;1.98;;
10987;SDS011;5547;42.672;23.230;2023-04-01T00:12:47;4.97;;;2.03;;
10987;SDS011;5547;42.672;23.230;2023-04-01T00:15:48;5.55;;;2.10;;
10987;SDS011;5547;42.672;23.230;2023-04-01T00:18:49;5.72;;;1.90;;
10987;SDS011;5547;42.672;23.230;2023-04-01T00:21:50;5.80;;;1.75;;
10987;SDS011;5547;42.672;23.230;2023-04-01T00:24:52;5.45;;;2.10;;
10987;SDS011;5547;42.672;23.230;2023-04-01T00:27:53;4.72;;;1.90;;
10987;SDS011;5547;42.672;23.230;2023-04-01T00:30:54;5.93;;;2.27;;
10987;SDS011;5547;42.672;23.230;2023-04-01T00:33:54;6.40;;;1.93;;
10987;SDS011;5547;42.672;23.230;2023-04-01T00:36:56;6.18;;;1.80;;
10987;SDS011;5547;42.672;23.230;2023-04-01T00:39:56;7.38;;;2.10;;
10987;SDS011;5547;42.672;23.230;2023-04-01T00:42:57;4.17;;;1.80;;
10987;SDS011;5547;42.672;23.230;2023-04-01T00:45:58;5.18;;;1.90;;
10987;SDS011;5547;42.672;23.230;2023-04-01T00:48:58;4.65;;;1.80;;
10987;SDS011;5547;42.672;23.230;2023-04-01T00:52:01;4.70;;;1.90;;
10987;SDS011;5547;42.672;23.230;2023-04-01T00:55:04;16.85;;;9.75;;
10987;SDS011;5547;42.672;23.230;2023-04-01T00:58:07;16.05;;;10.05;;
10987;SDS011;5547;42.672;23.230;2023-04-01T01:01:11;21.92;;;13.40;;
10987;SDS011;5547;42.672;23.230;2023-04-01T01:04:22;14.87;;;8.67;;
10987;SDS011;5547;42.672;23.230;2023-04-01T01:07:34;20.33;;;12.10;;
10987;SDS011;5547;42.672;23.230;2023-04-01T01:10:35;7.50;;;4.03;;
10987;SDS011;5547;42.672;23.230;2023-04-01T01:13:43;3.97;;;2.10;;
10987;SDS011;5547;42.672;23.230;2023-04-01T01:16:59;5.88;;;1.80;;
10987;SDS011;5547;42.672;23.230;2023-04-01T01:33:42;11.75;;;6.55;;
10987;SDS011;5547;42.672;23.230;2023-04-01T01:36:55;11.23;;;6.55;;
10987;SDS011;5547;42.672;23.230;2023-04-01T01:40:03;12.65;;;6.82;;
10987;SDS011;5547;42.672;23.230;2023-04-01T01:43:08;11.00;;;6.28;;
10987;SDS011;5547;42.672;23.230;2023-04-01T01:46:13;10.73;;;5.55;;
10987;SDS011;5547;42.672;23.230;2023-04-01T01:49:17;5.27;;;3.00;;
10987;SDS011;5547;42.672;23.230;2023-04-01T01:52:18;4.82;;;1.88;;
10987;SDS011;5547;42.672;23.230;2023-04-01T01:55:27;3.87;;;1.50;;
10987;SDS011;5547;42.672;23.230;2023-04-01T01:58:36;5.07;;;1.80;;
10987;SDS011;5547;42.672;23.230;2023-04-01T02:01:43;3.45;;;1.63;;
10987;SDS011;5547;42.672;23.230;2023-04-01T02:04:48;4.03;;;1.58;;
10987;SDS011;5547;42.672;23.230;2023-04-01T02:07:55;3.20;;;1.70;;
10987;SDS011;5547;42.672;23.230;2023-04-01T02:11:03;4.78;;;1.70;;
10987;SDS011;5547;42.672;23.230;2023-04-01T02:14:10;9.37;;;4.33;;
10987;SDS011;5547;42.672;23.230;2023-04-01T02:17:16;9.10;;;4.90;;
10987;SDS011;5547;42.672;23.230;2023-04-01T02:20:19;7.72;;;5.30;;
10987;SDS011;5547;42.672;23.230;2023-04-01T02:23:22;9.35;;;4.88;;
10987;SDS011;5547;42.672;23.230;2023-04-01T02:26:23;8.67;;;4.30;;
10987;SDS011;5547;42.672;23.230;2023-04-01T02:29:25;8.45;;;4.43;;
10987;SDS011;5547;42.672;23.230;2023-04-01T02:32:26;8.57;;;4.67;;
10987;SDS011;5547;42.672;23.230;2023-04-01T02:35:29;9.35;;;3.90;;
10987;SDS011;5547;42.672;23.230;2023-04-01T02:38:30;4.18;;;2.20;;
10987;SDS011;5547;42.672;23.230;2023-04-01T02:41:30;5.90;;;2.80;;
10987;SDS011;5547;42.672;23.230;2023-04-01T02:44:31;5.90;;;2.40;;
10987;SDS011;5547;42.672;23.230;2023-04-01T02:47:32;5.33;;;3.03;;
10987;SDS011;5547;42.672;23.230;2023-04-01T02:50:32;7.77;;;2.30;;
10987;SDS011;5547;42.672;23.230;2023-04-01T02:53:33;4.80;;;2.45;;
10987;SDS011;5547;42.672;23.230;2023-04-01T02:56:33;7.60;;;2.30;;
10987;SDS011;5547;42.672;23.230;2023-04-01T02:59:34;4.20;;;1.80;;
10987;SDS011;5547;42.672;23.230;2023-04-01T03:02:34;6.13;;;1.90;;
10987;SDS011;5547;42.672;23.230;2023-04-01T03:05:36;4.90;;;2.20;;
10987;SDS011;5547;42.672;23.230;2023-04-01T03:08:36;5.77;;;2.50;;
10987;SDS011;5547;42.672;23.230;2023-04-01T03:11:37;4.00;;;1.90;;
10987;SDS011;5547;42.672;23.230;2023-04-01T03:14:37;5.45;;;1.98;;
10987;SDS011;5547;42.672;23.230;2023-04-01T03:17:38;6.28;;;2.20;;
10987;SDS011;5547;42.672;23.230;2023-04-01T03:20:39;5.57;;;1.90;;
10987;SDS011;5547;42.672;23.230;2023-04-01T03:23:39;5.07;;;1.83;;
10987;SDS011;5547;42.672;23.230;2023-04-01T03:26:40;3.67;;;2.10;;
10987;SDS011;5547;42.672;23.230;2023-04-01T03:29:41;5.17;;;2.00;;
10987;SDS011;5547;42.672;23.230;2023-04-01T03:32:41;6.38;;;1.90;;
10987;SDS011;5547;42.672;23.230;2023-04-01T03:35:41;5.40;;;1.90;;
10987;SDS011;5547;42.672;23.230;2023-04-01T03:38:42;4.50;;;1.70;;
10987;SDS011;5547;42.672;23.230;2023-04-01T03:41:43;4.65;;;2.00;;
10987;SDS011;5547;42.672;23.230;2023-04-01T03:44:45;4.72;;;1.95;;
10987;SDS011;5547;42.672;23.230;2023-04-01T03:47:45;4.67;;;2.00;;
10987;SDS011;5547;42.672;23.230;2023-04-01T03:50:46;5.33;;;1.83;;
10987;SDS011;5547;42.672;23.230;2023-04-01T03:53:47;4.00;;;2.17;;
10987;SDS011;5547;42.672;23.230;2023-04-01T03:56:49;4.60;;;2.00;;
10987;SDS011;5547;42.672;23.230;2023-04-01T03:59:49;4.80;;;2.20;;
10987;SDS011;5547;42.672;23.230;2023-04-01T04:02:50;5.47;;;1.97;;
10987;SDS011;5547;42.672;23.230;2023-04-01T04:05:50;5.00;;;2.17;;
10987;SDS011;5547;42.672;23.230;2023-04-01T04:08:51;6.83;;;3.07;;
10987;SDS011;5547;42.672;23.230;2023-04-01T04:11:51;5.70;;;2.60;;
10987;SDS011;5547;42.672;23.230;2023-04-01T04:14:52;6.65;;;2.63;;
10987;SDS011;5547;42.672;23.230;2023-04-01T04:17:52;4.40;;;2.60;;
10987;SDS011;5547;42.672;23.230;2023-04-01T04:20:52;6.03;;;3.10;;
10987;SDS011;5547;42.672;23.230;2023-04-01T04:23:53;7.20;;;3.20;;
10987;SDS011;5547;42.672;23.230;2023-04-01T04:26:53;7.50;;;3.60;;
10987;SDS011;5547;42.672;23.230;2023-04-01T04:29:53;8.20;;;4.30;;
10987;SDS011;5547;42.672;23.230;2023-04-01T04:32:54;7.47;;;3.90;;
10987;SDS011;5547;42.672;23.230;2023-04-01T04:35:55;7.43;;;3.43;;
10987;SDS011;5547;42.672;23.230;2023-04-01T04:38:57;5.18;;;3.20;;
10987;SDS011;5547;42.672;23.230;2023-04-01T04:41:58;6.47;;;3.10;;
10987;SDS011;5547;42.672;23.230;2023-04-01T04:44:58;4.60;;;2.50;;
10987;SDS011;5547;42.672;23.230;2023-04-01T04:47:59;4.55;;;2.78;;
10987;SDS011;5547;42.672;23.230;2023-04-01T04:50:59;7.27;;;3.87;;
10987;SDS011;5547;42.672;23.230;2023-04-01T04:54:00;8.50;;;5.10;;
10987;SDS011;5547;42.672;23.230;2023-04-01T04:57:01;11.50;;;6.57;;
10987;SDS011;5547;42.672;23.230;2023-04-01T05:00:01;10.63;;;6.10;;
10987;SDS011;5547;42.672;23.230;2023-04-01T05:03:02;11.75;;;7.10;;
10987;SDS011;5547;42.672;23.230;2023-04-01T05:06:03;11.03;;;7.67;;
10987;SDS011;5547;42.672;23.230;2023-04-01T05:09:05;13.13;;;7.65;;
10987;SDS011;5547;42.672;23.230;2023-04-01T05:12:06;11.63;;;7.82;;
10987;SDS011;5547;42.672;23.230;2023-04-01T05:15:07;13.40;;;8.80;;
10987;SDS011;5547;42.672;23.230;2023-04-01T05:18:08;12.20;;;8.63;;
10987;SDS011;5547;42.672;23.230;2023-04-01T05:21:09;12.87;;;8.90;;
10987;SDS011;5547;42.672;23.230;2023-04-01T05:24:10;13.73;;;8.13;;
10987;SDS011;5547;42.672;23.230;2023-04-01T05:27:11;14.57;;;7.97;;
10987;SDS011;5547;42.672;23.230;2023-04-01T05:30:11;10.88;;;8.15;;
10987;SDS011;5547;42.672;23.230;2023-04-01T05:33:12;10.83;;;7.50;;
10987;SDS011;5547;42.672;23.230;2023-04-01T05:36:13;12.07;;;7.60;;
10987;SDS011;5547;42.672;23.230;2023-04-01T05:39:15;11.88;;;6.80;;
10987;SDS011;5547;42.672;23.230;2023-04-01T05:42:15;9.73;;;5.60;;
10987;SDS011;5547;42.672;23.230;2023-04-01T05:45:16;7.77;;;5.00;;
10987;SDS011;5547;42.672;23.230;2023-04-01T05:48:16;13.38;;;6.30;;
10987;SDS011;5547;42.672;23.230;2023-04-01T05:51:17;12.27;;;6.50;;
10987;SDS011;5547;42.672;23.230;2023-04-01T05:54:18;9.77;;;5.70;;
10987;SDS011;5547;42.672;23.230;2023-04-01T05:57:19;9.07;;;5.75;;
10987;SDS011;5547;42.672;23.230;2023-04-01T06:00:20;9.63;;;5.57;;
10987;SDS011;5547;42.672;23.230;2023-04-01T06:03:21;9.73;;;6.17;;
10987;SDS011;5547;42.672;23.230;2023-04-01T06:06:25;10.47;;;5.40;;
10987;SDS011;5547;42.672;23.230;2023-04-01T06:09:29;10.90;;;6.07;;
10987;SDS011;5547;42.672;23.230;2023-04-01T06:12:48;9.43;;;5.65;;
10987;SDS011;5547;42.672;23.230;2023-04-01T06:16:08;10.43;;;6.13;;
10987;SDS011;5547;42.672;23.230;2023-04-01T06:19:36;12.40;;;7.03;;
10987;SDS011;5547;42.672;23.230;2023-04-01T06:46:40;10.02;;;6.07;;
10987;SDS011;5547;42.672;23.230;2023-04-01T06:56:20;9.57;;;4.93;;
10987;SDS011;5547;42.672;23.230;2023-04-01T06:59:27;10.30;;;5.28;;
10987;SDS011;5547;42.672;23.230;2023-04-01T07:05:59;10.75;;;5.10;;
10987;SDS011;5547;42.672;23.230;2023-04-01T07:09:05;9.77;;;5.82;;
10987;SDS011;5547;42.672;23.230;2023-04-01T07:12:12;8.52;;;5.50;;
10987;SDS011;5547;42.672;23.230;2023-04-01T07:15:19;8.57;;;5.30;;
10987;SDS011;5547;42.672;23.230;2023-04-01T07:18:30;8.27;;;5.65;;
10987;SDS011;5547;42.672;23.230;2023-04-01T07:24:44;13.03;;;6.80;;
10987;SDS011;5547;42.672;23.230;2023-04-01T07:27:45;9.88;;;6.45;;
10987;SDS011;5547;42.672;23.230;2023-04-01T07:30:57;9.82;;;6.60;;
10987;SDS011;5547;42.672;23.230;2023-04-01T07:34:29;12.05;;;5.97;;
10987;SDS011;5547;42.672;23.230;2023-04-01T07:37:50;9.25;;;5.13;;
10987;SDS011;5547;42.672;23.230;2023-04-01T07:44:39;9.90;;;4.90;;
10987;SDS011;5547;42.672;23.230;2023-04-01T07:54:51;9.70;;;4.65;;
10987;SDS011;5547;42.672;23.230;2023-04-01T07:58:23;9.38;;;4.95;;
10987;SDS011;5547;42.672;23.230;2023-04-01T08:04:55;8.52;;;5.45;;
10987;SDS011;5547;42.672;23.230;2023-04-01T08:11:35;8.40;;;5.38;;
10987;SDS011;5547;42.672;23.230;2023-04-01T08:21:30;11.23;;;6.15;;
10987;SDS011;5547;42.672;23.230;2023-04-01T08:24:40;10.50;;;7.25;;
10987;SDS011;5547;42.672;23.230;2023-04-01T08:27:44;12.35;;;6.40;;
10987;SDS011;5547;42.672;23.230;2023-04-01T08:30:55;10.75;;;5.82;;
10987;SDS011;5547;42.672;23.230;2023-04-01T08:34:04;10.65;;;5.07;;
10987;SDS011;5547;42.672;23.230;2023-04-01T08:37:22;9.82;;;6.00;;
10987;SDS011;5547;42.672;23.230;2023-04-01T08:47:09;8.88;;;5.50;;
10987;SDS011;5547;42.672;23.230;2023-04-01T09:13:04;6.70;;;2.97;;
10987;SDS011;5547;42.672;23.230;2023-04-01T09:23:41;8.40;;;1.90;;
10987;SDS011;5547;42.672;23.230;2023-04-01T09:27:03;28.95;;;5.40;;
10987;SDS011;5547;42.672;23.230;2023-04-01T09:34:30;5.95;;;2.28;;
10987;SDS011;5547;42.672;23.230;2023-04-01T09:40:43;6.00;;;2.30;;
10987;SDS011;5547;42.672;23.230;2023-04-01T09:44:12;6.63;;;2.88;;
10987;SDS011;5547;42.672;23.230;2023-04-01T09:50:47;11.77;;;3.50;;
10987;SDS011;5547;42.672;23.230;2023-04-01T10:17:00;7.27;;;2.57;;
10987;SDS011;5547;42.672;23.230;2023-04-01T10:45:01;6.47;;;2.63;;
10987;SDS011;5547;42.672;23.230;2023-04-01T11:24:50;4.93;;;2.17;;
10987;SDS011;5547;42.672;23.230;2023-04-01T11:28:10;5.43;;;2.40;;
10987;SDS011;5547;42.672;23.230;2023-04-01T11:45:39;5.90;;;2.95;;
10987;SDS011;5547;42.672;23.230;2023-04-01T11:59:31;6.82;;;3.80;;
10987;SDS011;5547;42.672;23.230;2023-04-01T12:03:13;6.45;;;4.30;;
10987;SDS011;5547;42.672;23.230;2023-04-01T12:37:21;5.80;;;3.60;;
10987;SDS011;5547;42.672;23.230;2023-04-01T12:47:12;3.42;;;2.42;;
10987;SDS011;5547;42.672;23.230;2023-04-01T12:54:08;3.53;;;3.22;;
10987;SDS011;5547;42.672;23.230;2023-04-01T13:17:20;4.82;;;2.92;;
10987;SDS011;5547;42.672;23.230;2023-04-01T13:20:45;5.30;;;2.33;;
10987;SDS011;5547;42.672;23.230;2023-04-01T13:33:50;2.65;;;1.70;;
10987;SDS011;5547;42.672;23.230;2023-04-01T13:43:42;2.30;;;1.60;;
10987;SDS011;5547;42.672;23.230;2023-04-01T14:10:08;2.55;;;1.20;;
10987;SDS011;5547;42.672;23.230;2023-04-01T14:13:14;2.20;;;1.25;;
10987;SDS011;5547;42.672;23.230;2023-04-01T14:20:07;3.15;;;1.60;;
10987;SDS011;5547;42.672;23.230;2023-04-01T14:30:16;2.30;;;1.45;;
10987;SDS011;5547;42.672;23.230;2023-04-01T14:42:56;1.88;;;1.08;;
10987;SDS011;5547;42.672;23.230;2023-04-01T14:46:17;1.77;;;1.00;;
10987;SDS011;5547;42.672;23.230;2023-04-01T14:49:50;2.20;;;1.10;;
10987;SDS011;5547;42.672;23.230;2023-04-01T14:52:58;4.65;;;2.22;;
10987;SDS011;5547;42.672;23.230;2023-04-01T14:56:11;5.35;;;2.40;;
10987;SDS011;5547;42.672;23.230;2023-04-01T15:15:50;2.47;;;1.40;;
10987;SDS011;5547;42.672;23.230;2023-04-01T15:19:45;3.20;;;1.40;;
10987;SDS011;5547;42.672;23.230;2023-04-01T15:26:54;2.95;;;1.30;;
10987;SDS011;5547;42.672;23.230;2023-04-01T15:40:05;2.90;;;1.80;;
10987;SDS011;5547;42.672;23.230;2023-04-01T15:49:47;1.42;;;0.90;;
10987;SDS011;5547;42.672;23.230;2023-04-01T15:56:20;2.53;;;1.60;;
10987;SDS011;5547;42.672;23.230;2023-04-01T16:20:02;2.03;;;1.60;;
10987;SDS011;5547;42.672;23.230;2023-04-01T16:23:13;2.40;;;1.70;;
10987;SDS011;5547;42.672;23.230;2023-04-01T16:26:59;2.60;;;1.85;;
10987;SDS011;5547;42.672;23.230;2023-04-01T16:46:32;2.30;;;1.70;;
10987;SDS011;5547;42.672;23.230;2023-04-01T16:53:14;3.03;;;2.72;;
10987;SDS011;5547;42.672;23.230;2023-04-01T16:56:27;2.95;;;2.25;;
10987;SDS011;5547;42.672;23.230;2023-04-01T16:59:41;2.00;;;1.70;;
10987;SDS011;5547;42.672;23.230;2023-04-01T17:09:45;1.52;;;1.42;;
10987;SDS011;5547;42.672;23.230;2023-04-01T17:19:30;2.15;;;1.77;;
10987;SDS011;5547;42.672;23.230;2023-04-01T17:39:15;2.75;;;2.50;;
10987;SDS011;5547;42.672;23.230;2023-04-01T17:53:01;7.60;;;6.67;;
10987;SDS011;5547;42.672;23.230;2023-04-01T18:22:53;4.25;;;3.85;;
10987;SDS011;5547;42.672;23.230;2023-04-01T18:26:42;4.20;;;3.80;;
10987;SDS011;5547;42.672;23.230;2023-04-01T18:39:41;4.57;;;3.75;;
10987;SDS011;5547;42.672;23.230;2023-04-01T18:46:03;2.92;;;2.30;;
10987;SDS011;5547;42.672;23.230;2023-04-01T18:52:36;5.25;;;4.47;;
10987;SDS011;5547;42.672;23.230;2023-04-01T18:55:40;3.95;;;2.97;;
10987;SDS011;5547;42.672;23.230;2023-04-01T19:05:19;3.38;;;3.08;;
10987;SDS011;5547;42.672;23.230;2023-04-01T19:11:43;3.20;;;2.80;;
10987;SDS011;5547;42.672;23.230;2023-04-01T19:14:58;2.20;;;1.90;;
10987;SDS011;5547;42.672;23.230;2023-04-01T19:18:22;2.83;;;2.50;;
10987;SDS011;5547;42.672;23.230;2023-04-01T19:21:29;2.40;;;2.20;;
10987;SDS011;5547;42.672;23.230;2023-04-01T19:28:22;2.00;;;1.80;;
10987;SDS011;5547;42.672;23.230;2023-04-01T19:31:42;2.92;;;2.63;;
10987;SDS011;5547;42.672;23.230;2023-04-01T19:38:28;4.40;;;4.00;;
10987;SDS011;5547;42.672;23.230;2023-04-01T19:41:46;6.90;;;5.27;;
10987;SDS011;5547;42.672;23.230;2023-04-01T19:44:55;5.45;;;3.90;;
10987;SDS011;5547;42.672;23.230;2023-04-01T19:48:37;2.15;;;1.95;;
10987;SDS011;5547;42.672;23.230;2023-04-01T19:52:11;3.97;;;3.30;;
10987;SDS011;5547;42.672;23.230;2023-04-01T19:59:00;2.38;;;2.00;;
10987;SDS011;5547;42.672;23.230;2023-04-01T20:02:28;2.80;;;2.08;;
10987;SDS011;5547;42.672;23.230;2023-04-01T20:09:02;2.30;;;2.00;;
10987;SDS011;5547;42.672;23.230;2023-04-01T20:15:42;1.88;;;1.70;;
10987;SDS011;5547;42.672;23.230;2023-04-01T20:21:52;1.95;;;1.75;;
10987;SDS011;5547;42.672;23.230;2023-04-01T20:24:59;2.10;;;1.90;;
10987;SDS011;5547;42.672;23.230;2023-04-01T20:45:12;2.30;;;2.08;;
10987;SDS011;5547;42.672;23.230;2023-04-01T20:51:37;5.40;;;3.42;;
10987;SDS011;5547;42.672;23.230;2023-04-01T20:58:07;2.88;;;2.17;;
10987;SDS011;5547;42.672;23.230;2023-04-01T21:04:42;3.78;;;2.33;;
10987;SDS011;5547;42.672;23.230;2023-04-01T21:11:09;2.67;;;2.20;;
10987;SDS011;5547;42.672;23.230;2023-04-01T21:28:26;1.90;;;1.70;;
10987;SDS011;5547;42.672;23.230;2023-04-01T21:45:46;4.53;;;2.70;;
10987;SDS011;5547;42.672;23.230;2023-04-01T21:55:51;3.22;;;2.10;;
10987;SDS011;5547;42.672;23.230;2023-04-01T22:06:16;2.95;;;1.63;;
10987;SDS011;5547;42.672;23.230;2023-04-01T22:09:25;2.22;;;1.58;;
10987;SDS011;5547;42.672;23.230;2023-04-01T22:12:38;2.55;;;1.40;;
10987;SDS011;5547;42.672;23.230;2023-04-01T22:16:16;2.10;;;1.50;;
10987;SDS011;5547;42.672;23.230;2023-04-01T22:19:25;2.15;;;1.50;;
10987;SDS011;5547;42.672;23.230;2023-04-01T22:26:32;1.67;;;1.35;;
10987;SDS011;5547;42.672;23.230;2023-04-01T22:29:44;2.17;;;1.40;;
10987;SDS011;5547;42.672;23.230;2023-04-01T22:36:39;1.60;;;1.40;;
10987;SDS011;5547;42.672;23.230;2023-04-01T22:42:56;3.55;;;1.40;;
10987;SDS011;5547;42.672;23.230;2023-04-01T22:49:32;1.92;;;1.35;;
10987;SDS011;5547;42.672;23.230;2023-04-01T22:52:55;1.83;;;1.05;;
10987;SDS011;5547;42.672;23.230;2023-04-01T22:56:07;2.50;;;1.73;;
10987;SDS011;5547;42.672;23.230;2023-04-01T22:59:37;1.30;;;1.20;;
10987;SDS011;5547;42.672;23.230;2023-04-01T23:02:42;2.40;;;1.10;;
10987;SDS011;5547;42.672;23.230;2023-04-01T23:05:49;2.20;;;1.50;;
10987;SDS011;5547;42.672;23.230;2023-04-01T23:12:23;2.40;;;1.40;;
10987;SDS011;5547;42.672;23.230;2023-04-01T23:15:26;2.90;;;1.80;;
10987;SDS011;5547;42.672;23.230;2023-04-01T23:24:38;1.40;;;1.05;;
10987;SDS011;5547;42.672;23.230;2023-04-01T23:31:30;1.23;;;0.90;;
10987;SDS011;5547;42.672;23.230;2023-04-01T23:34:36;0.95;;;0.73;;
10987;SDS011;5547;42.672;23.230;2023-04-01T23:37:36;1.47;;;0.90;;
10987;SDS011;5547;42.672;23.230;2023-04-01T23:40:37;1.30;;;1.10;;
10987;SDS011;5547;42.672;23.230;2023-04-01T23:43:38;5.87;;;2.83;;
10987;SDS011;5547;42.672;23.230;2023-04-01T23:46:41;3.42;;;2.00;;
10987;SDS011;5547;42.672;23.230;2023-04-01T23:49:45;1.35;;;1.00;;
10987;SDS011;5547;42.672;23.230;2023-04-01T23:52:53;2.40;;;1.20;;
10987;SDS011;5547;42.672;23.230;2023-04-01T23:55:59;1.25;;;0.85;;
10987;SDS011;5547;42.672;23.230;2023-04-01T23:59:02;1.88;;;1.00;;
